Tuesday, November 21, 2017, 10:47 AM EST
Back to Local

KPOU, Poughkeepsie Dutchess Cty

Location: Wappingers Falls, NY, United States Lat: 41.633
Local Time: 10:47 AM EST (15:47 GMT) Lon: -73.883
Time Zone: US/Eastern Elev: 167 ft

Show me the last for .
Show Coded

Time T Td Feel RH Dir Speed Gust Alt SLP Vis Weather Sky Remarks
2017-11-21 09:53 46 28 41 49 150° 10 - 30.07 30.06 10 CLR None
2017-11-21 08:53 42 26 40 52 160° 3 - 30.09 30.08 10 CLR None
2017-11-21 07:53 30 25 - 81 - Calm - 30.10 30.09 10 CLR None
2017-11-21 06:53 26 22 - 84 - Calm - 30.09 30.08 10 CLR 6-hr Min Temp (7am): 25.0°F
6-hr Max Temp (7am): 32.0°F
2017-11-21 05:53 27 22 - 80 - Calm - 30.09 30.08 10 CLR None
2017-11-21 04:53 28 23 24 81 120° 3 - 30.08 30.07 10 CLR None
2017-11-21 03:53 26 21 - 80 - Calm - 30.08 30.07 10 CLR None
2017-11-21 02:53 28 23 - 81 - Calm - 30.08 30.08 10 CLR None
2017-11-21 01:53 31 23 27 72 90° 3 - 30.09 30.08 10 CLR None
2017-11-21 00:53 32 23 - 68 - Calm - 30.08 30.07 10 CLR 6-hr Min Temp (1am): 32.0°F
6-hr Max Temp (1am): 42.1°F
2017-11-20 23:53 38 24 32 56 240° 8 - 30.08 30.07 10 CLR 24-hr Min Temp (12am): 33.1°F
24-hr Max Temp (12am): 44.1°F
2017-11-20 22:53 38 24 32 56 230° 8 - 30.08 30.07 10 CLR None
2017-11-20 21:53 38 25 33 59 230° 7 - 30.07 30.06 10 CLR None
2017-11-20 20:53 39 25 33 56 230° 9 - 30.07 30.06 10 CLR None
2017-11-20 19:53 37 24 32 59 250° 6 - 30.06 30.06 10 CLR None
2017-11-20 18:53 42 24 39 48 210° 5 - 30.05 30.05 10 CLR 6-hr Min Temp (7pm): 41.0°F
6-hr Max Temp (7pm): 44.1°F
2017-11-20 17:53 43 24 37 46 230° 10 - 30.05 30.04 10 OVC055 None
2017-11-20 16:53 43 24 38 46 220° 8 - 30.02 30.01 10 OVC050 None
2017-11-20 15:53 43 23 35 44 260° 16 - 30.00 29.99 10 OVC050 None
2017-11-20 14:53 43 22 33 42 260° 18 28 29.99 29.99 10 OVC060 None
2017-11-20 13:53 43 21 33 41 280° 17 28 29.98 29.97 10 SCT055 None
2017-11-20 12:53 42 20 31 40 270° 20 30 29.97 29.96 10 SCT048 Peak wind: 33 mph (29 kts) from 300° at 43 min
6-hr Min Temp (1pm): 33.1°F
6-hr Max Temp (1pm): 43.0°F
2017-11-20 11:53 40 20 30 44 270° 13 23 29.98 29.97 10 SCT048 None
2017-11-20 10:53 39 22 31 49 250° 13 - 30.00 29.99 10 BKN050 OVC060 None

Support USWX by starting your Amazon purchase here.